sensor_id;sensor_type;location;lat;lon;timestamp;P1;durP1;ratioP1;P2;durP2;ratioP2
5519;SDS011;2782;52.362;10.012;2022-10-26T00:02:02;2.33;;;1.90;;
5519;SDS011;2782;52.362;10.012;2022-10-26T00:08:46;2.77;;;2.17;;
5519;SDS011;2782;52.362;10.012;2022-10-26T00:15:28;1.83;;;1.73;;
5519;SDS011;2782;52.362;10.012;2022-10-26T00:22:10;2.17;;;1.80;;
5519;SDS011;2782;52.362;10.012;2022-10-26T00:28:54;2.00;;;1.90;;
5519;SDS011;2782;52.362;10.012;2022-10-26T00:35:36;2.10;;;1.47;;
5519;SDS011;2782;52.362;10.012;2022-10-26T00:42:19;1.60;;;1.50;;
5519;SDS011;2782;52.362;10.012;2022-10-26T00:49:07;1.27;;;1.20;;
5519;SDS011;2782;52.362;10.012;2022-10-26T00:55:53;2.93;;;1.27;;
5519;SDS011;2782;52.362;10.012;2022-10-26T01:02:35;2.20;;;1.57;;
5519;SDS011;2782;52.362;10.012;2022-10-26T01:09:19;2.00;;;1.60;;
5519;SDS011;2782;52.362;10.012;2022-10-26T01:23:17;1.47;;;1.40;;
5519;SDS011;2782;52.362;10.012;2022-10-26T01:37:18;1.90;;;1.40;;
5519;SDS011;2782;52.362;10.012;2022-10-26T01:44:06;1.20;;;1.10;;
5519;SDS011;2782;52.362;10.012;2022-10-26T01:50:52;1.20;;;1.10;;
5519;SDS011;2782;52.362;10.012;2022-10-26T01:57:36;1.20;;;1.00;;
5519;SDS011;2782;52.362;10.012;2022-10-26T02:04:24;1.40;;;1.30;;
5519;SDS011;2782;52.362;10.012;2022-10-26T02:11:22;1.10;;;0.70;;
5519;SDS011;2782;52.362;10.012;2022-10-26T02:18:13;1.20;;;1.10;;
5519;SDS011;2782;52.362;10.012;2022-10-26T02:25:05;0.70;;;0.70;;
5519;SDS011;2782;52.362;10.012;2022-10-26T02:31:50;1.00;;;0.80;;
5519;SDS011;2782;52.362;10.012;2022-10-26T02:38:32;0.70;;;0.70;;
5519;SDS011;2782;52.362;10.012;2022-10-26T02:45:16;0.60;;;0.57;;
5519;SDS011;2782;52.362;10.012;2022-10-26T02:52:03;1.67;;;1.40;;
5519;SDS011;2782;52.362;10.012;2022-10-26T02:58:50;1.20;;;1.17;;
5519;SDS011;2782;52.362;10.012;2022-10-26T03:05:35;0.93;;;0.93;;
5519;SDS011;2782;52.362;10.012;2022-10-26T03:12:23;1.23;;;1.13;;
5519;SDS011;2782;52.362;10.012;2022-10-26T03:19:05;1.20;;;1.10;;
5519;SDS011;2782;52.362;10.012;2022-10-26T03:25:46;1.40;;;1.23;;
5519;SDS011;2782;52.362;10.012;2022-10-26T03:32:29;2.40;;;0.87;;
5519;SDS011;2782;52.362;10.012;2022-10-26T03:39:11;1.27;;;1.17;;
5519;SDS011;2782;52.362;10.012;2022-10-26T03:45:53;1.60;;;1.20;;
5519;SDS011;2782;52.362;10.012;2022-10-26T03:52:36;1.23;;;1.03;;
5519;SDS011;2782;52.362;10.012;2022-10-26T03:59:18;1.57;;;1.20;;
5519;SDS011;2782;52.362;10.012;2022-10-26T04:05:59;1.13;;;0.90;;
5519;SDS011;2782;52.362;10.012;2022-10-26T04:12:42;1.30;;;0.80;;
5519;SDS011;2782;52.362;10.012;2022-10-26T04:19:24;0.80;;;0.80;;
5519;SDS011;2782;52.362;10.012;2022-10-26T04:26:06;1.23;;;0.80;;
5519;SDS011;2782;52.362;10.012;2022-10-26T04:32:49;1.03;;;0.60;;
5519;SDS011;2782;52.362;10.012;2022-10-26T04:39:31;3.97;;;1.20;;
5519;SDS011;2782;52.362;10.012;2022-10-26T04:46:12;1.60;;;0.80;;
5519;SDS011;2782;52.362;10.012;2022-10-26T04:52:55;3.60;;;1.47;;
5519;SDS011;2782;52.362;10.012;2022-10-26T04:59:37;11.30;;;1.30;;
5519;SDS011;2782;52.362;10.012;2022-10-26T05:06:19;1.20;;;1.10;;
5519;SDS011;2782;52.362;10.012;2022-10-26T05:13:02;6.33;;;1.93;;
5519;SDS011;2782;52.362;10.012;2022-10-26T05:19:44;2.27;;;0.90;;
5519;SDS011;2782;52.362;10.012;2022-10-26T05:26:31;6.53;;;1.40;;
5519;SDS011;2782;52.362;10.012;2022-10-26T05:33:14;5.10;;;1.87;;
5519;SDS011;2782;52.362;10.012;2022-10-26T05:39:56;12.03;;;2.73;;
5519;SDS011;2782;52.362;10.012;2022-10-26T05:46:38;16.67;;;3.40;;
5519;SDS011;2782;52.362;10.012;2022-10-26T05:53:21;7.93;;;2.30;;
5519;SDS011;2782;52.362;10.012;2022-10-26T06:00:06;12.13;;;3.10;;
5519;SDS011;2782;52.362;10.012;2022-10-26T06:06:51;5.23;;;2.60;;
5519;SDS011;2782;52.362;10.012;2022-10-26T06:13:36;11.80;;;3.20;;
5519;SDS011;2782;52.362;10.012;2022-10-26T06:20:22;6.27;;;2.57;;
5519;SDS011;2782;52.362;10.012;2022-10-26T06:27:21;14.13;;;3.40;;
5519;SDS011;2782;52.362;10.012;2022-10-26T06:34:09;14.63;;;3.97;;
5519;SDS011;2782;52.362;10.012;2022-10-26T06:40:55;13.00;;;4.20;;
5519;SDS011;2782;52.362;10.012;2022-10-26T06:47:40;16.87;;;4.27;;
5519;SDS011;2782;52.362;10.012;2022-10-26T06:54:29;16.00;;;4.60;;
5519;SDS011;2782;52.362;10.012;2022-10-26T07:01:19;12.07;;;4.30;;
5519;SDS011;2782;52.362;10.012;2022-10-26T07:08:01;14.50;;;5.10;;
5519;SDS011;2782;52.362;10.012;2022-10-26T07:14:45;14.73;;;5.17;;
5519;SDS011;2782;52.362;10.012;2022-10-26T07:21:27;16.20;;;5.43;;
5519;SDS011;2782;52.362;10.012;2022-10-26T07:28:09;11.70;;;3.90;;
5519;SDS011;2782;52.362;10.012;2022-10-26T07:34:54;11.70;;;3.90;;
5519;SDS011;2782;52.362;10.012;2022-10-26T07:41:35;14.73;;;4.60;;
5519;SDS011;2782;52.362;10.012;2022-10-26T07:48:17;19.13;;;4.27;;
5519;SDS011;2782;52.362;10.012;2022-10-26T07:55:00;8.77;;;3.70;;
5519;SDS011;2782;52.362;10.012;2022-10-26T08:01:42;8.00;;;3.10;;
5519;SDS011;2782;52.362;10.012;2022-10-26T08:08:24;10.60;;;3.43;;
5519;SDS011;2782;52.362;10.012;2022-10-26T08:15:10;8.43;;;3.20;;
5519;SDS011;2782;52.362;10.012;2022-10-26T08:21:51;9.00;;;3.20;;
5519;SDS011;2782;52.362;10.012;2022-10-26T08:28:33;5.50;;;2.60;;
5519;SDS011;2782;52.362;10.012;2022-10-26T08:35:16;8.30;;;2.80;;
5519;SDS011;2782;52.362;10.012;2022-10-26T08:42:00;6.53;;;2.37;;
5519;SDS011;2782;52.362;10.012;2022-10-26T08:48:48;7.50;;;2.40;;
5519;SDS011;2782;52.362;10.012;2022-10-26T08:55:39;4.10;;;2.37;;
5519;SDS011;2782;52.362;10.012;2022-10-26T09:02:24;3.20;;;1.73;;
5519;SDS011;2782;52.362;10.012;2022-10-26T09:09:07;5.60;;;2.30;;
5519;SDS011;2782;52.362;10.012;2022-10-26T09:15:59;4.40;;;2.30;;
5519;SDS011;2782;52.362;10.012;2022-10-26T09:22:47;3.90;;;2.40;;
5519;SDS011;2782;52.362;10.012;2022-10-26T09:29:35;4.50;;;1.90;;
5519;SDS011;2782;52.362;10.012;2022-10-26T09:36:22;2.70;;;1.60;;
5519;SDS011;2782;52.362;10.012;2022-10-26T09:43:04;5.00;;;2.00;;
5519;SDS011;2782;52.362;10.012;2022-10-26T09:49:51;2.83;;;1.70;;
5519;SDS011;2782;52.362;10.012;2022-10-26T09:56:37;2.10;;;1.27;;
5519;SDS011;2782;52.362;10.012;2022-10-26T10:03:23;4.00;;;1.70;;
5519;SDS011;2782;52.362;10.012;2022-10-26T10:10:07;4.40;;;2.00;;
5519;SDS011;2782;52.362;10.012;2022-10-26T10:16:57;3.20;;;1.73;;
5519;SDS011;2782;52.362;10.012;2022-10-26T10:23:46;1.83;;;1.40;;
5519;SDS011;2782;52.362;10.012;2022-10-26T10:30:31;3.50;;;1.33;;
5519;SDS011;2782;52.362;10.012;2022-10-26T10:37:20;3.27;;;1.20;;
5519;SDS011;2782;52.362;10.012;2022-10-26T10:44:04;2.80;;;1.27;;
5519;SDS011;2782;52.362;10.012;2022-10-26T10:50:53;3.87;;;1.50;;
5519;SDS011;2782;52.362;10.012;2022-10-26T10:57:42;2.97;;;0.90;;
5519;SDS011;2782;52.362;10.012;2022-10-26T11:04:52;1.60;;;1.00;;
5519;SDS011;2782;52.362;10.012;2022-10-26T11:11:44;2.80;;;1.20;;
5519;SDS011;2782;52.362;10.012;2022-10-26T11:18:33;1.40;;;1.00;;
5519;SDS011;2782;52.362;10.012;2022-10-26T11:25:17;4.03;;;1.13;;
5519;SDS011;2782;52.362;10.012;2022-10-26T11:32:09;3.10;;;1.10;;
5519;SDS011;2782;52.362;10.012;2022-10-26T11:38:58;2.20;;;1.03;;
5519;SDS011;2782;52.362;10.012;2022-10-26T11:45:45;2.70;;;1.00;;
5519;SDS011;2782;52.362;10.012;2022-10-26T11:52:38;3.53;;;0.90;;
5519;SDS011;2782;52.362;10.012;2022-10-26T11:59:27;1.77;;;0.83;;
5519;SDS011;2782;52.362;10.012;2022-10-26T12:06:11;2.00;;;0.70;;
5519;SDS011;2782;52.362;10.012;2022-10-26T12:13:00;2.33;;;0.97;;
5519;SDS011;2782;52.362;10.012;2022-10-26T12:19:52;3.33;;;1.30;;
5519;SDS011;2782;52.362;10.012;2022-10-26T12:26:46;2.77;;;0.80;;
5519;SDS011;2782;52.362;10.012;2022-10-26T12:33:47;1.43;;;0.90;;
5519;SDS011;2782;52.362;10.012;2022-10-26T12:40:41;2.00;;;0.80;;
5519;SDS011;2782;52.362;10.012;2022-10-26T12:54:39;2.50;;;0.73;;
5519;SDS011;2782;52.362;10.012;2022-10-26T13:01:32;0.90;;;0.63;;
5519;SDS011;2782;52.362;10.012;2022-10-26T13:08:25;1.00;;;0.73;;
5519;SDS011;2782;52.362;10.012;2022-10-26T13:15:17;0.70;;;0.43;;
5519;SDS011;2782;52.362;10.012;2022-10-26T13:22:02;0.70;;;0.50;;
5519;SDS011;2782;52.362;10.012;2022-10-26T13:28:46;1.53;;;0.80;;
5519;SDS011;2782;52.362;10.012;2022-10-26T13:35:29;0.80;;;0.40;;
5519;SDS011;2782;52.362;10.012;2022-10-26T13:42:14;2.40;;;0.50;;
5519;SDS011;2782;52.362;10.012;2022-10-26T13:49:00;1.33;;;0.50;;
5519;SDS011;2782;52.362;10.012;2022-10-26T13:55:49;0.70;;;0.33;;
5519;SDS011;2782;52.362;10.012;2022-10-26T14:02:34;0.80;;;0.40;;
5519;SDS011;2782;52.362;10.012;2022-10-26T14:09:22;1.60;;;0.60;;
5519;SDS011;2782;52.362;10.012;2022-10-26T14:16:05;1.47;;;0.60;;
5519;SDS011;2782;52.362;10.012;2022-10-26T14:22:50;1.07;;;0.40;;
5519;SDS011;2782;52.362;10.012;2022-10-26T14:29:32;2.20;;;0.40;;
5519;SDS011;2782;52.362;10.012;2022-10-26T14:36:18;1.73;;;0.50;;
5519;SDS011;2782;52.362;10.012;2022-10-26T14:43:04;1.37;;;0.47;;
5519;SDS011;2782;52.362;10.012;2022-10-26T14:49:46;0.60;;;0.30;;
5519;SDS011;2782;52.362;10.012;2022-10-26T14:56:29;0.60;;;0.40;;
5519;SDS011;2782;52.362;10.012;2022-10-26T15:03:19;0.83;;;0.40;;
5519;SDS011;2782;52.362;10.012;2022-10-26T15:10:02;1.47;;;0.50;;
5519;SDS011;2782;52.362;10.012;2022-10-26T15:16:49;0.70;;;0.37;;
5519;SDS011;2782;52.362;10.012;2022-10-26T15:23:36;1.33;;;0.40;;
5519;SDS011;2782;52.362;10.012;2022-10-26T15:30:20;1.43;;;0.50;;
5519;SDS011;2782;52.362;10.012;2022-10-26T15:37:04;0.60;;;0.30;;
5519;SDS011;2782;52.362;10.012;2022-10-26T15:43:48;2.60;;;0.40;;
5519;SDS011;2782;52.362;10.012;2022-10-26T15:50:31;1.77;;;0.90;;
5519;SDS011;2782;52.362;10.012;2022-10-26T15:57:13;0.50;;;0.40;;
5519;SDS011;2782;52.362;10.012;2022-10-26T16:03:56;3.13;;;1.40;;
5519;SDS011;2782;52.362;10.012;2022-10-26T16:10:38;2.10;;;0.73;;
5519;SDS011;2782;52.362;10.012;2022-10-26T16:17:20;0.90;;;0.60;;
5519;SDS011;2782;52.362;10.012;2022-10-26T16:24:03;1.70;;;0.67;;
5519;SDS011;2782;52.362;10.012;2022-10-26T16:30:45;2.77;;;0.60;;
5519;SDS011;2782;52.362;10.012;2022-10-26T16:37:27;2.10;;;0.53;;
5519;SDS011;2782;52.362;10.012;2022-10-26T16:44:11;1.37;;;0.50;;
5519;SDS011;2782;52.362;10.012;2022-10-26T16:50:53;0.90;;;0.40;;
5519;SDS011;2782;52.362;10.012;2022-10-26T16:57:35;2.10;;;0.60;;
5519;SDS011;2782;52.362;10.012;2022-10-26T17:04:18;5.20;;;0.50;;
5519;SDS011;2782;52.362;10.012;2022-10-26T17:11:00;2.83;;;1.40;;
5519;SDS011;2782;52.362;10.012;2022-10-26T17:17:43;4.40;;;0.70;;
5519;SDS011;2782;52.362;10.012;2022-10-26T17:24:26;0.90;;;0.63;;
5519;SDS011;2782;52.362;10.012;2022-10-26T17:31:09;7.17;;;0.70;;
5519;SDS011;2782;52.362;10.012;2022-10-26T17:37:52;2.57;;;0.47;;
5519;SDS011;2782;52.362;10.012;2022-10-26T17:44:35;2.03;;;0.50;;
5519;SDS011;2782;52.362;10.012;2022-10-26T17:51:18;5.40;;;0.93;;
5519;SDS011;2782;52.362;10.012;2022-10-26T17:57:59;1.87;;;0.70;;
5519;SDS011;2782;52.362;10.012;2022-10-26T18:04:42;2.37;;;0.37;;
5519;SDS011;2782;52.362;10.012;2022-10-26T18:11:24;0.63;;;0.30;;
5519;SDS011;2782;52.362;10.012;2022-10-26T18:18:07;1.30;;;0.50;;
5519;SDS011;2782;52.362;10.012;2022-10-26T18:24:50;1.70;;;0.40;;
5519;SDS011;2782;52.362;10.012;2022-10-26T18:31:32;0.93;;;0.40;;
5519;SDS011;2782;52.362;10.012;2022-10-26T18:38:14;0.60;;;0.30;;
5519;SDS011;2782;52.362;10.012;2022-10-26T18:44:57;1.58;;;0.52;;
5519;SDS011;2782;52.362;10.012;2022-10-26T18:51:41;3.60;;;0.77;;
5519;SDS011;2782;52.362;10.012;2022-10-26T18:58:23;7.07;;;0.63;;
5519;SDS011;2782;52.362;10.012;2022-10-26T19:05:06;3.73;;;0.63;;
5519;SDS011;2782;52.362;10.012;2022-10-26T19:11:49;11.00;;;1.10;;
5519;SDS011;2782;52.362;10.012;2022-10-26T19:18:30;7.20;;;0.80;;
5519;SDS011;2782;52.362;10.012;2022-10-26T19:25:14;6.60;;;1.10;;
5519;SDS011;2782;52.362;10.012;2022-10-26T19:31:55;3.67;;;1.00;;
5519;SDS011;2782;52.362;10.012;2022-10-26T19:38:38;6.70;;;0.63;;
5519;SDS011;2782;52.362;10.012;2022-10-26T19:45:21;6.10;;;0.93;;
5519;SDS011;2782;52.362;10.012;2022-10-26T19:52:03;11.90;;;1.23;;
5519;SDS011;2782;52.362;10.012;2022-10-26T19:58:45;2.40;;;0.90;;
5519;SDS011;2782;52.362;10.012;2022-10-26T20:05:30;6.37;;;1.47;;
5519;SDS011;2782;52.362;10.012;2022-10-26T20:12:13;4.03;;;1.03;;
5519;SDS011;2782;52.362;10.012;2022-10-26T20:18:54;11.47;;;1.90;;
5519;SDS011;2782;52.362;10.012;2022-10-26T20:25:38;13.13;;;2.67;;
5519;SDS011;2782;52.362;10.012;2022-10-26T20:32:24;7.60;;;1.90;;
5519;SDS011;2782;52.362;10.012;2022-10-26T20:39:06;13.47;;;2.77;;
5519;SDS011;2782;52.362;10.012;2022-10-26T20:45:49;5.83;;;1.90;;
5519;SDS011;2782;52.362;10.012;2022-10-26T20:52:35;8.23;;;1.97;;
5519;SDS011;2782;52.362;10.012;2022-10-26T20:59:24;5.67;;;1.67;;
5519;SDS011;2782;52.362;10.012;2022-10-26T21:06:12;5.20;;;1.30;;
5519;SDS011;2782;52.362;10.012;2022-10-26T21:12:54;3.70;;;1.87;;
5519;SDS011;2782;52.362;10.012;2022-10-26T21:19:35;8.27;;;1.40;;
5519;SDS011;2782;52.362;10.012;2022-10-26T21:26:19;2.97;;;1.47;;
5519;SDS011;2782;52.362;10.012;2022-10-26T21:33:01;6.43;;;1.67;;
5519;SDS011;2782;52.362;10.012;2022-10-26T21:39:43;5.60;;;1.40;;
5519;SDS011;2782;52.362;10.012;2022-10-26T21:46:26;2.80;;;1.20;;
5519;SDS011;2782;52.362;10.012;2022-10-26T21:53:08;2.20;;;1.00;;
5519;SDS011;2782;52.362;10.012;2022-10-26T21:59:50;2.40;;;1.07;;
5519;SDS011;2782;52.362;10.012;2022-10-26T22:06:33;6.57;;;1.40;;
5519;SDS011;2782;52.362;10.012;2022-10-26T22:13:14;2.83;;;1.33;;
5519;SDS011;2782;52.362;10.012;2022-10-26T22:19:56;2.23;;;1.00;;
5519;SDS011;2782;52.362;10.012;2022-10-26T22:26:39;2.00;;;0.90;;
5519;SDS011;2782;52.362;10.012;2022-10-26T22:33:21;2.73;;;1.20;;
5519;SDS011;2782;52.362;10.012;2022-10-26T22:40:03;2.47;;;1.00;;
5519;SDS011;2782;52.362;10.012;2022-10-26T22:46:46;1.90;;;0.80;;
5519;SDS011;2782;52.362;10.012;2022-10-26T22:53:28;2.60;;;0.83;;
5519;SDS011;2782;52.362;10.012;2022-10-26T23:00:10;3.23;;;1.10;;
5519;SDS011;2782;52.362;10.012;2022-10-26T23:06:53;1.43;;;0.87;;
5519;SDS011;2782;52.362;10.012;2022-10-26T23:13:35;2.10;;;0.97;;
5519;SDS011;2782;52.362;10.012;2022-10-26T23:20:17;1.40;;;0.93;;
5519;SDS011;2782;52.362;10.012;2022-10-26T23:27:00;1.73;;;0.90;;
5519;SDS011;2782;52.362;10.012;2022-10-26T23:33:42;0.83;;;0.70;;
5519;SDS011;2782;52.362;10.012;2022-10-26T23:40:24;1.03;;;0.70;;
5519;SDS011;2782;52.362;10.012;2022-10-26T23:47:07;2.70;;;0.60;;
5519;SDS011;2782;52.362;10.012;2022-10-26T23:53:49;0.90;;;0.40;;
